createdAt,value
2022-11-20T00:16:25.978Z,-1.03
2022-11-20T00:36:18.958Z,-1.09
2022-11-20T00:56:18.948Z,-1.19
2022-11-20T01:16:18.928Z,-1.03
2022-11-20T01:36:18.909Z,-0.96
2022-11-20T01:56:18.859Z,-0.88
2022-11-20T02:16:18.846Z,-0.8
2022-11-20T02:36:18.801Z,-0.75
2022-11-20T02:56:18.791Z,-0.73
2022-11-20T03:16:19.077Z,-0.78
2022-11-20T03:36:18.752Z,-0.76
2022-11-20T03:56:18.715Z,-0.78
2022-11-20T04:16:18.678Z,-0.79
2022-11-20T04:36:18.682Z,-0.83
2022-11-20T04:56:18.643Z,-0.92
2022-11-20T05:16:18.622Z,-1.16
2022-11-20T05:36:18.635Z,-1.65
2022-11-20T05:56:18.678Z,-1.92
2022-11-20T06:16:18.604Z,-1.82
2022-11-20T06:36:18.539Z,-1.74
2022-11-20T07:36:18.493Z,-1.63
2022-11-20T07:56:18.526Z,-1.61
2022-11-20T08:16:18.458Z,-1.5
2022-11-20T08:56:18.416Z,-0.93
2022-11-20T09:16:25.414Z,-0.62
2022-11-20T09:36:18.383Z,0
2022-11-20T09:56:25.347Z,-0.15
2022-11-20T10:36:18.398Z,0.02
2022-11-20T10:56:18.272Z,0.19
2022-11-20T11:16:18.257Z,0.41
2022-11-20T11:36:32.295Z,0.65
2022-11-20T11:56:25.230Z,0.9
2022-11-20T12:16:32.198Z,1.11
2022-11-20T12:36:25.153Z,1.19
2022-11-20T12:56:18.149Z,1.04
2022-11-20T13:16:25.102Z,1.19
2022-11-20T13:36:18.074Z,1.31
2022-11-20T13:56:18.107Z,1.6
2022-11-20T14:36:26.031Z,1.02
2022-11-20T14:56:18.022Z,1
2022-11-20T15:16:17.950Z,0.74
2022-11-20T15:36:17.963Z,0.41
2022-11-20T15:56:17.939Z,0.27
2022-11-20T16:16:17.883Z,0.21
2022-11-20T16:36:17.896Z,0.13
2022-11-20T16:56:17.847Z,0.15
2022-11-20T17:16:17.900Z,0.12
2022-11-20T17:36:17.889Z,0.02
2022-11-20T17:56:17.773Z,-0.17
2022-11-20T18:16:17.768Z,-0.43
2022-11-20T18:36:17.764Z,-0.65
2022-11-20T18:56:17.719Z,-0.8
2022-11-20T19:16:17.684Z,-0.97
2022-11-20T19:36:17.783Z,-1.18
2022-11-20T19:56:17.653Z,-1.2
2022-11-20T20:16:17.649Z,-1.39
2022-11-20T20:36:17.607Z,-1.51
2022-11-20T20:56:17.675Z,-1.61
2022-11-20T21:16:17.569Z,-1.98
2022-11-20T21:36:17.632Z,-2.7
2022-11-20T21:56:20.223Z,-2.85
2022-11-20T22:16:17.534Z,-3.16
2022-11-20T22:36:17.494Z,-2.7
2022-11-20T23:56:17.451Z,-1.96
